sensor_id;sensor_type;location;lat;lon;timestamp;pressure;altitude;pressure_sealevel;temperature;humidity
78144;BME280;67394;52.522;13.622;2023-08-20T00:01:04;101158.59;;;22.78;99.07
78144;BME280;67394;52.522;13.622;2023-08-20T00:03:31;101159.44;;;22.79;99.00
78144;BME280;67394;52.522;13.622;2023-08-20T00:05:58;101161.16;;;22.80;98.92
78144;BME280;67394;52.522;13.622;2023-08-20T00:08:24;101156.81;;;22.79;99.01
78144;BME280;67394;52.522;13.622;2023-08-20T00:10:52;101160.22;;;22.81;99.17
78144;BME280;67394;52.522;13.622;2023-08-20T00:13:19;101155.91;;;22.80;98.92
78144;BME280;67394;52.522;13.622;2023-08-20T00:15:46;101152.38;;;22.81;99.19
78144;BME280;67394;52.522;13.622;2023-08-20T00:18:14;101159.38;;;22.80;100.00
78144;BME280;67394;52.522;13.622;2023-08-20T00:20:40;101163.75;;;22.80;100.00
78144;BME280;67394;52.522;13.622;2023-08-20T00:23:07;101169.03;;;22.78;100.00
78144;BME280;67394;52.522;13.622;2023-08-20T00:25:34;101169.91;;;22.79;100.00
78144;BME280;67394;52.522;13.622;2023-08-20T00:28:00;101172.59;;;22.77;100.00
78144;BME280;67394;52.522;13.622;2023-08-20T00:30:27;101173.53;;;22.76;100.00
78144;BME280;67394;52.522;13.622;2023-08-20T00:32:53;101189.16;;;22.78;100.00
78144;BME280;67394;52.522;13.622;2023-08-20T00:35:20;101187.50;;;22.75;100.00
78144;BME280;67394;52.522;13.622;2023-08-20T00:37:47;101180.72;;;22.70;99.98
78144;BME280;67394;52.522;13.622;2023-08-20T00:40:14;101185.25;;;22.66;100.00
78144;BME280;67394;52.522;13.622;2023-08-20T00:42:40;101189.56;;;22.67;98.64
78144;BME280;67394;52.522;13.622;2023-08-20T00:45:07;101193.72;;;22.71;97.71
78144;BME280;67394;52.522;13.622;2023-08-20T00:47:34;101196.41;;;22.70;97.60
78144;BME280;67394;52.522;13.622;2023-08-20T00:50:02;101198.91;;;22.73;97.48
78144;BME280;67394;52.522;13.622;2023-08-20T00:52:29;101204.88;;;22.76;96.43
78144;BME280;67394;52.522;13.622;2023-08-20T00:54:56;101196.41;;;22.70;97.03
78144;BME280;67394;52.522;13.622;2023-08-20T00:57:22;101205.31;;;22.66;97.79
78144;BME280;67394;52.522;13.622;2023-08-20T00:59:50;101206.16;;;22.66;97.32
78144;BME280;67394;52.522;13.622;2023-08-20T01:02:17;101201.84;;;22.65;97.51
78144;BME280;67394;52.522;13.622;2023-08-20T01:04:47;101206.28;;;22.63;97.61
78144;BME280;67394;52.522;13.622;2023-08-20T01:10:19;101207.97;;;22.64;97.75
78144;BME280;67394;52.522;13.622;2023-08-20T01:12:51;101212.47;;;22.60;98.68
78144;BME280;67394;52.522;13.622;2023-08-20T01:15:18;101215.16;;;22.59;99.13
78144;BME280;67394;52.522;13.622;2023-08-20T01:17:44;101218.59;;;22.59;99.48
78144;BME280;67394;52.522;13.622;2023-08-20T01:20:13;101214.44;;;22.55;100.00
78144;BME280;67394;52.522;13.622;2023-08-20T01:28:48;101210.41;;;22.47;100.00
78144;BME280;67394;52.522;13.622;2023-08-20T01:31:15;101218.47;;;22.42;100.00
78144;BME280;67394;52.522;13.622;2023-08-20T01:33:42;101217.84;;;22.36;100.00
78144;BME280;67394;52.522;13.622;2023-08-20T01:36:08;101214.53;;;22.32;100.00
78144;BME280;67394;52.522;13.622;2023-08-20T01:38:35;101211.28;;;22.25;100.00
78144;BME280;67394;52.522;13.622;2023-08-20T01:41:02;101209.66;;;22.23;100.00
78144;BME280;67394;52.522;13.622;2023-08-20T01:43:28;101212.50;;;22.17;100.00
78144;BME280;67394;52.522;13.622;2023-08-20T01:45:55;101215.38;;;22.11;100.00
78144;BME280;67394;52.522;13.622;2023-08-20T01:48:21;101219.91;;;22.06;100.00
78144;BME280;67394;52.522;13.622;2023-08-20T01:50:48;101218.88;;;22.10;100.00
78144;BME280;67394;52.522;13.622;2023-08-20T01:53:14;101228.31;;;22.14;100.00
78144;BME280;67394;52.522;13.622;2023-08-20T01:55:41;101226.41;;;22.17;100.00
78144;BME280;67394;52.522;13.622;2023-08-20T01:58:10;101227.63;;;22.31;100.00
78144;BME280;67394;52.522;13.622;2023-08-20T02:00:36;101235.91;;;22.42;99.70
78144;BME280;67394;52.522;13.622;2023-08-20T02:03:03;101231.41;;;22.45;99.54
78144;BME280;67394;52.522;13.622;2023-08-20T02:05:29;101229.34;;;22.53;99.21
78144;BME280;67394;52.522;13.622;2023-08-20T02:07:56;101223.25;;;22.53;99.44
78144;BME280;67394;52.522;13.622;2023-08-20T02:10:23;101227.50;;;22.55;99.86
78144;BME280;67394;52.522;13.622;2023-08-20T02:12:49;101233.28;;;22.63;99.19
78144;BME280;67394;52.522;13.622;2023-08-20T02:15:16;101238.38;;;22.67;99.60
78144;BME280;67394;52.522;13.622;2023-08-20T02:17:42;101239.81;;;22.74;99.09
78144;BME280;67394;52.522;13.622;2023-08-20T02:20:09;101234.97;;;22.64;100.00
78144;BME280;67394;52.522;13.622;2023-08-20T02:22:36;101245.91;;;22.74;99.51
78144;BME280;67394;52.522;13.622;2023-08-20T02:25:03;101242.59;;;22.69;99.62
78144;BME280;67394;52.522;13.622;2023-08-20T02:27:30;101246.66;;;22.78;99.16
78144;BME280;67394;52.522;13.622;2023-08-20T02:29:56;101255.72;;;22.89;98.68
78144;BME280;67394;52.522;13.622;2023-08-20T02:32:23;101251.09;;;22.76;99.32
78144;BME280;67394;52.522;13.622;2023-08-20T02:34:52;101253.72;;;22.76;99.65
78144;BME280;67394;52.522;13.622;2023-08-20T02:37:19;101249.84;;;22.62;100.00
78144;BME280;67394;52.522;13.622;2023-08-20T02:39:47;101252.59;;;22.59;100.00
78144;BME280;67394;52.522;13.622;2023-08-20T02:42:13;101251.75;;;22.59;100.00
78144;BME280;67394;52.522;13.622;2023-08-20T02:44:40;101257.13;;;22.56;100.00
78144;BME280;67394;52.522;13.622;2023-08-20T02:47:06;101248.47;;;22.54;100.00
78144;BME280;67394;52.522;13.622;2023-08-20T02:49:33;101256.25;;;22.55;100.00
78144;BME280;67394;52.522;13.622;2023-08-20T02:51:59;101258.06;;;22.53;100.00
78144;BME280;67394;52.522;13.622;2023-08-20T02:54:26;101251.94;;;22.54;100.00
78144;BME280;67394;52.522;13.622;2023-08-20T02:56:55;101254.41;;;22.57;100.00
78144;BME280;67394;52.522;13.622;2023-08-20T02:59:24;101263.38;;;22.52;100.00
78144;BME280;67394;52.522;13.622;2023-08-20T03:01:50;101256.97;;;22.59;100.00
78144;BME280;67394;52.522;13.622;2023-08-20T03:04:17;101263.03;;;22.59;100.00
78144;BME280;67394;52.522;13.622;2023-08-20T03:06:44;101260.75;;;22.52;100.00
78144;BME280;67394;52.522;13.622;2023-08-20T03:09:11;101261.81;;;22.46;100.00
78144;BME280;67394;52.522;13.622;2023-08-20T03:11:39;101257.59;;;22.44;100.00
78144;BME280;67394;52.522;13.622;2023-08-20T03:14:05;101261.81;;;22.46;100.00
78144;BME280;67394;52.522;13.622;2023-08-20T03:16:32;101279.47;;;22.41;100.00
78144;BME280;67394;52.522;13.622;2023-08-20T03:18:59;101282.38;;;22.34;100.00
78144;BME280;67394;52.522;13.622;2023-08-20T03:21:25;101276.06;;;22.39;100.00
78144;BME280;67394;52.522;13.622;2023-08-20T03:23:51;101276.25;;;22.35;100.00
78144;BME280;67394;52.522;13.622;2023-08-20T03:26:18;101277.88;;;22.37;100.00
78144;BME280;67394;52.522;13.622;2023-08-20T03:28:45;101282.25;;;22.37;100.00
78144;BME280;67394;52.522;13.622;2023-08-20T03:31:13;101288.47;;;22.34;100.00
78144;BME280;67394;52.522;13.622;2023-08-20T03:33:40;101295.47;;;22.34;100.00
78144;BME280;67394;52.522;13.622;2023-08-20T03:36:06;101300.94;;;22.26;100.00
78144;BME280;67394;52.522;13.622;2023-08-20T03:38:34;101301.09;;;22.23;100.00
78144;BME280;67394;52.522;13.622;2023-08-20T03:41:00;101308.72;;;22.27;100.00
78144;BME280;67394;52.522;13.622;2023-08-20T03:43:27;101307.16;;;22.23;100.00
78144;BME280;67394;52.522;13.622;2023-08-20T03:45:53;101300.28;;;22.21;100.00
78144;BME280;67394;52.522;13.622;2023-08-20T03:48:20;101313.34;;;22.21;100.00
78144;BME280;67394;52.522;13.622;2023-08-20T03:50:46;101304.78;;;22.17;100.00
78144;BME280;67394;52.522;13.622;2023-08-20T03:53:13;101311.91;;;22.14;100.00
78144;BME280;67394;52.522;13.622;2023-08-20T03:55:40;101316.06;;;22.18;100.00
78144;BME280;67394;52.522;13.622;2023-08-20T03:58:07;101315.84;;;22.24;100.00
78144;BME280;67394;52.522;13.622;2023-08-20T04:00:35;101304.16;;;22.11;100.00
78144;BME280;67394;52.522;13.622;2023-08-20T04:03:02;101317.28;;;22.09;100.00
78144;BME280;67394;52.522;13.622;2023-08-20T04:05:29;101308.69;;;22.06;100.00
78144;BME280;67394;52.522;13.622;2023-08-20T04:07:55;101299.94;;;22.07;100.00
78144;BME280;67394;52.522;13.622;2023-08-20T04:10:22;101315.72;;;22.04;100.00
78144;BME280;67394;52.522;13.622;2023-08-20T04:12:48;101322.78;;;22.02;100.00
78144;BME280;67394;52.522;13.622;2023-08-20T04:15:16;101324.66;;;21.98;100.00
78144;BME280;67394;52.522;13.622;2023-08-20T04:17:42;101336.75;;;22.01;100.00
78144;BME280;67394;52.522;13.622;2023-08-20T04:20:09;101338.59;;;21.97;100.00
78144;BME280;67394;52.522;13.622;2023-08-20T04:22:36;101342.06;;;21.98;100.00
78144;BME280;67394;52.522;13.622;2023-08-20T04:25:03;101343.06;;;21.93;100.00
78144;BME280;67394;52.522;13.622;2023-08-20T04:27:32;101341.38;;;21.92;100.00
78144;BME280;67394;52.522;13.622;2023-08-20T04:30:05;101347.56;;;21.90;100.00
78144;BME280;67394;52.522;13.622;2023-08-20T04:32:32;101333.56;;;21.92;100.00
78144;BME280;67394;52.522;13.622;2023-08-20T04:34:58;101330.34;;;21.84;100.00
78144;BME280;67394;52.522;13.622;2023-08-20T04:37:25;101334.72;;;21.84;100.00
78144;BME280;67394;52.522;13.622;2023-08-20T04:39:52;101339.72;;;21.90;100.00
78144;BME280;67394;52.522;13.622;2023-08-20T04:42:21;101345.81;;;21.90;100.00
78144;BME280;67394;52.522;13.622;2023-08-20T04:44:47;101346.81;;;21.86;100.00
78144;BME280;67394;52.522;13.622;2023-08-20T04:47:14;101340.59;;;21.90;100.00
78144;BME280;67394;52.522;13.622;2023-08-20T04:49:40;101335.47;;;21.87;100.00
78144;BME280;67394;52.522;13.622;2023-08-20T04:52:07;101336.31;;;21.88;100.00
78144;BME280;67394;52.522;13.622;2023-08-20T04:54:34;101350.78;;;21.97;100.00
78144;BME280;67394;52.522;13.622;2023-08-20T04:57:01;101349.13;;;21.94;100.00
78144;BME280;67394;52.522;13.622;2023-08-20T04:59:28;101344.81;;;21.93;100.00
78144;BME280;67394;52.522;13.622;2023-08-20T05:01:55;101352.50;;;21.98;100.00
78144;BME280;67394;52.522;13.622;2023-08-20T05:04:22;101350.88;;;21.93;100.00
78144;BME280;67394;52.522;13.622;2023-08-20T05:06:48;101360.38;;;21.96;100.00
78144;BME280;67394;52.522;13.622;2023-08-20T05:09:17;101361.91;;;22.03;100.00
78144;BME280;67394;52.522;13.622;2023-08-20T05:11:44;101362.00;;;22.00;100.00
78144;BME280;67394;52.522;13.622;2023-08-20T05:14:10;101363.59;;;22.04;100.00
78144;BME280;67394;52.522;13.622;2023-08-20T05:16:37;101350.72;;;22.00;100.00
78144;BME280;67394;52.522;13.622;2023-08-20T05:19:03;101354.13;;;22.02;100.00
78144;BME280;67394;52.522;13.622;2023-08-20T05:21:30;101358.56;;;22.00;100.00
78144;BME280;67394;52.522;13.622;2023-08-20T05:23:56;101358.50;;;22.01;100.00
78144;BME280;67394;52.522;13.622;2023-08-20T05:26:23;101363.53;;;22.06;100.00
78144;BME280;67394;52.522;13.622;2023-08-20T05:28:49;101370.47;;;22.07;100.00
78144;BME280;67394;52.522;13.622;2023-08-20T05:31:16;101367.81;;;22.08;100.00
78144;BME280;67394;52.522;13.622;2023-08-20T05:33:42;101379.81;;;22.14;100.00
78144;BME280;67394;52.522;13.622;2023-08-20T05:36:09;101367.69;;;22.11;100.00
78144;BME280;67394;52.522;13.622;2023-08-20T05:38:36;101381.47;;;22.15;100.00
78144;BME280;67394;52.522;13.622;2023-08-20T05:41:02;101382.97;;;22.22;100.00
78144;BME280;67394;52.522;13.622;2023-08-20T05:43:31;101381.16;;;22.24;100.00
78144;BME280;67394;52.522;13.622;2023-08-20T05:45:58;101388.72;;;22.32;100.00
78144;BME280;67394;52.522;13.622;2023-08-20T05:48:24;101380.69;;;22.36;100.00
78144;BME280;67394;52.522;13.622;2023-08-20T05:50:51;101378.88;;;22.38;100.00
78144;BME280;67394;52.522;13.622;2023-08-20T05:53:17;101381.31;;;22.43;100.00
78144;BME280;67394;52.522;13.622;2023-08-20T05:55:44;101399.56;;;22.44;100.00
78144;BME280;67394;52.522;13.622;2023-08-20T05:58:10;101397.72;;;22.46;100.00
78144;BME280;67394;52.522;13.622;2023-08-20T06:00:37;101400.97;;;22.53;100.00
78144;BME280;67394;52.522;13.622;2023-08-20T06:03:04;101403.16;;;22.63;100.00
78144;BME280;67394;52.522;13.622;2023-08-20T06:05:30;101404.63;;;22.71;100.00
78144;BME280;67394;52.522;13.622;2023-08-20T06:07:57;101401.09;;;22.72;100.00
78144;BME280;67394;52.522;13.622;2023-08-20T06:10:23;101413.13;;;22.77;100.00
78144;BME280;67394;52.522;13.622;2023-08-20T06:12:50;101414.03;;;22.76;100.00
78144;BME280;67394;52.522;13.622;2023-08-20T06:15:19;101399.75;;;22.85;100.00
78144;BME280;67394;52.522;13.622;2023-08-20T06:17:46;101394.22;;;22.92;100.00
78144;BME280;67394;52.522;13.622;2023-08-20T06:20:12;101387.81;;;22.99;100.00
78144;BME280;67394;52.522;13.622;2023-08-20T06:22:39;101388.56;;;23.03;100.00
78144;BME280;67394;52.522;13.622;2023-08-20T06:25:06;101395.06;;;23.15;100.00
78144;BME280;67394;52.522;13.622;2023-08-20T06:27:32;101407.81;;;23.22;100.00
78144;BME280;67394;52.522;13.622;2023-08-20T06:30:01;101413.66;;;23.29;100.00
78144;BME280;67394;52.522;13.622;2023-08-20T06:32:27;101406.78;;;23.26;100.00
78144;BME280;67394;52.522;13.622;2023-08-20T06:34:54;101411.22;;;23.24;100.00
78144;BME280;67394;52.522;13.622;2023-08-20T06:37:20;101410.59;;;23.19;100.00
78144;BME280;67394;52.522;13.622;2023-08-20T06:39:47;101432.22;;;23.23;100.00
78144;BME280;67394;52.522;13.622;2023-08-20T06:42:13;101440.13;;;23.21;100.00
78144;BME280;67394;52.522;13.622;2023-08-20T06:44:40;101449.16;;;23.14;100.00
78144;BME280;67394;52.522;13.622;2023-08-20T06:47:06;101442.41;;;23.09;100.00
78144;BME280;67394;52.522;13.622;2023-08-20T06:49:33;101445.03;;;23.09;100.00
78144;BME280;67394;52.522;13.622;2023-08-20T06:51:59;101448.34;;;23.12;100.00
78144;BME280;67394;52.522;13.622;2023-08-20T06:54:26;101451.34;;;23.25;100.00
78144;BME280;67394;52.522;13.622;2023-08-20T06:56:54;101443.63;;;23.42;100.00
78144;BME280;67394;52.522;13.622;2023-08-20T06:59:21;101443.56;;;23.44;100.00
78144;BME280;67394;52.522;13.622;2023-08-20T07:01:47;101439.03;;;23.49;100.00
78144;BME280;67394;52.522;13.622;2023-08-20T07:04:14;101439.69;;;23.54;100.00
78144;BME280;67394;52.522;13.622;2023-08-20T07:06:41;101440.59;;;23.53;100.00
78144;BME280;67394;52.522;13.622;2023-08-20T07:09:08;101452.22;;;23.67;100.00
78144;BME280;67394;52.522;13.622;2023-08-20T07:11:35;101453.06;;;23.68;98.29
78144;BME280;67394;52.522;13.622;2023-08-20T07:14:01;101457.63;;;23.63;97.78
78144;BME280;67394;52.522;13.622;2023-08-20T07:16:28;101450.97;;;23.56;97.75
78144;BME280;67394;52.522;13.622;2023-08-20T07:18:54;101457.09;;;23.55;98.71
78144;BME280;67394;52.522;13.622;2023-08-20T07:21:21;101457.56;;;23.64;98.29
78144;BME280;67394;52.522;13.622;2023-08-20T07:23:48;101471.00;;;23.57;97.88
78144;BME280;67394;52.522;13.622;2023-08-20T07:26:14;101478.00;;;23.56;98.08
78144;BME280;67394;52.522;13.622;2023-08-20T07:28:41;101489.13;;;23.61;97.48
78144;BME280;67394;52.522;13.622;2023-08-20T07:31:07;101481.75;;;23.71;97.08
78144;BME280;67394;52.522;13.622;2023-08-20T07:33:34;101488.31;;;23.81;95.81
78144;BME280;67394;52.522;13.622;2023-08-20T07:36:00;101482.41;;;23.96;95.88
78144;BME280;67394;52.522;13.622;2023-08-20T07:38:27;101473.03;;;24.11;94.96
78144;BME280;67394;52.522;13.622;2023-08-20T07:40:53;101469.44;;;24.34;94.71
78144;BME280;67394;52.522;13.622;2023-08-20T07:43:20;101477.31;;;24.34;93.24
78144;BME280;67394;52.522;13.622;2023-08-20T07:45:47;101493.88;;;24.34;91.72
78144;BME280;67394;52.522;13.622;2023-08-20T07:48:15;101494.41;;;24.22;91.50
78144;BME280;67394;52.522;13.622;2023-08-20T07:50:42;101500.53;;;24.23;93.23
78144;BME280;67394;52.522;13.622;2023-08-20T07:53:09;101506.09;;;24.35;91.83
78144;BME280;67394;52.522;13.622;2023-08-20T07:55:35;101494.59;;;24.38;91.06
78144;BME280;67394;52.522;13.622;2023-08-20T07:58:02;101494.34;;;24.44;90.10
78144;BME280;67394;52.522;13.622;2023-08-20T08:00:28;101491.16;;;24.56;89.84
78144;BME280;67394;52.522;13.622;2023-08-20T08:02:55;101496.63;;;24.70;90.15
78144;BME280;67394;52.522;13.622;2023-08-20T08:05:21;101493.38;;;24.65;88.81
78144;BME280;67394;52.522;13.622;2023-08-20T08:07:48;101493.25;;;24.48;89.85
78144;BME280;67394;52.522;13.622;2023-08-20T08:10:14;101506.34;;;24.68;91.17
78144;BME280;67394;52.522;13.622;2023-08-20T08:12:41;101495.72;;;24.32;90.84
78144;BME280;67394;52.522;13.622;2023-08-20T08:15:07;101503.47;;;24.35;91.54
78144;BME280;67394;52.522;13.622;2023-08-20T08:17:34;101502.25;;;24.42;91.88
78144;BME280;67394;52.522;13.622;2023-08-20T08:20:01;101513.41;;;24.27;92.42
78144;BME280;67394;52.522;13.622;2023-08-20T08:22:27;101517.88;;;24.46;93.39
78144;BME280;67394;52.522;13.622;2023-08-20T08:24:54;101517.88;;;24.46;92.34
78144;BME280;67394;52.522;13.622;2023-08-20T08:27:20;101514.00;;;24.34;92.68
78144;BME280;67394;52.522;13.622;2023-08-20T08:29:47;101508.28;;;24.44;93.01
78144;BME280;67394;52.522;13.622;2023-08-20T08:32:13;101515.44;;;24.41;92.83
78144;BME280;67394;52.522;13.622;2023-08-20T08:34:40;101521.41;;;24.44;93.04
78144;BME280;67394;52.522;13.622;2023-08-20T08:37:06;101514.25;;;24.28;91.73
78144;BME280;67394;52.522;13.622;2023-08-20T08:39:33;101506.66;;;24.42;92.68
78144;BME280;67394;52.522;13.622;2023-08-20T08:42:00;101516.16;;;24.44;91.87
78144;BME280;67394;52.522;13.622;2023-08-20T08:44:28;101524.03;;;24.63;90.83
78144;BME280;67394;52.522;13.622;2023-08-20T08:46:55;101525.41;;;24.91;90.60
78144;BME280;67394;52.522;13.622;2023-08-20T08:49:21;101517.03;;;24.83;88.63
78144;BME280;67394;52.522;13.622;2023-08-20T08:51:48;101515.06;;;24.88;88.66
78144;BME280;67394;52.522;13.622;2023-08-20T08:54:17;101517.78;;;25.05;89.74
78144;BME280;67394;52.522;13.622;2023-08-20T08:56:43;101517.41;;;25.12;89.18
78144;BME280;67394;52.522;13.622;2023-08-20T08:59:09;101520.81;;;25.14;88.14
78144;BME280;67394;52.522;13.622;2023-08-20T09:01:40;101520.75;;;25.16;87.63
78144;BME280;67394;52.522;13.622;2023-08-20T09:04:07;101523.72;;;25.27;85.74
78144;BME280;67394;52.522;13.622;2023-08-20T09:09:13;101519.41;;;25.97;83.50
78144;BME280;67394;52.522;13.622;2023-08-20T09:11:40;101529.25;;;25.93;82.01
78144;BME280;67394;52.522;13.622;2023-08-20T09:14:06;101530.47;;;25.86;84.35
78144;BME280;67394;52.522;13.622;2023-08-20T09:16:33;101535.84;;;25.84;82.24
78144;BME280;67394;52.522;13.622;2023-08-20T09:19:02;101528.16;;;25.63;82.80
78144;BME280;67394;52.522;13.622;2023-08-20T09:21:29;101526.03;;;25.52;83.38
78144;BME280;67394;52.522;13.622;2023-08-20T09:23:57;101526.47;;;25.79;82.66
78144;BME280;67394;52.522;13.622;2023-08-20T09:26:23;101526.06;;;25.86;84.88
78144;BME280;67394;52.522;13.622;2023-08-20T09:28:50;101519.44;;;26.31;81.56
78144;BME280;67394;52.522;13.622;2023-08-20T09:31:16;101512.38;;;26.65;80.37
78144;BME280;67394;52.522;13.622;2023-08-20T09:33:53;101512.03;;;26.55;79.36
78144;BME280;67394;52.522;13.622;2023-08-20T09:36:33;101508.75;;;26.67;77.92
78144;BME280;67394;52.522;13.622;2023-08-20T09:39:03;101509.47;;;26.53;78.96
78144;BME280;67394;52.522;13.622;2023-08-20T09:41:30;101505.84;;;26.56;80.39
78144;BME280;67394;52.522;13.622;2023-08-20T09:43:57;101505.81;;;26.89;79.36
78144;BME280;67394;52.522;13.622;2023-08-20T09:46:26;101507.50;;;26.90;76.83
78144;BME280;67394;52.522;13.622;2023-08-20T09:48:55;101508.03;;;26.96;74.36
78144;BME280;67394;52.522;13.622;2023-08-20T09:51:27;101494.78;;;27.29;76.46
78144;BME280;67394;52.522;13.622;2023-08-20T09:56:38;101499.97;;;27.15;73.70
78144;BME280;67394;52.522;13.622;2023-08-20T09:59:06;101502.69;;;27.14;73.11
78144;BME280;67394;52.522;13.622;2023-08-20T10:01:33;101492.38;;;27.56;71.32
78144;BME280;67394;52.522;13.622;2023-08-20T10:03:59;101499.66;;;27.51;72.30
78144;BME280;67394;52.522;13.622;2023-08-20T10:06:27;101500.53;;;27.52;71.44
78144;BME280;67394;52.522;13.622;2023-08-20T10:08:54;101498.38;;;27.74;72.46
78144;BME280;67394;52.522;13.622;2023-08-20T10:11:21;101500.31;;;27.71;70.87
78144;BME280;67394;52.522;13.622;2023-08-20T10:13:48;101505.59;;;27.71;69.56
78144;BME280;67394;52.522;13.622;2023-08-20T10:16:17;101505.31;;;28.05;69.46
78144;BME280;67394;52.522;13.622;2023-08-20T10:18:44;101509.97;;;28.30;68.65
78144;BME280;67394;52.522;13.622;2023-08-20T10:21:12;101502.09;;;28.14;66.83
78144;BME280;67394;52.522;13.622;2023-08-20T10:23:41;101507.78;;;28.51;69.10
78144;BME280;67394;52.522;13.622;2023-08-20T10:26:08;101507.81;;;28.65;65.94
78144;BME280;67394;52.522;13.622;2023-08-20T10:28:35;101501.00;;;28.75;66.97
78144;BME280;67394;52.522;13.622;2023-08-20T10:31:09;101505.72;;;28.98;66.81
78144;BME280;67394;52.522;13.622;2023-08-20T10:33:38;101497.38;;;29.04;64.95
78144;BME280;67394;52.522;13.622;2023-08-20T10:36:14;101500.94;;;28.48;65.45
78144;BME280;67394;52.522;13.622;2023-08-20T10:38:41;101495.91;;;28.86;65.46
78144;BME280;67394;52.522;13.622;2023-08-20T10:41:08;101492.41;;;29.27;65.99
78144;BME280;67394;52.522;13.622;2023-08-20T10:43:40;101494.50;;;29.48;61.67
78144;BME280;67394;52.522;13.622;2023-08-20T10:46:21;101490.88;;;29.37;62.23
78144;BME280;67394;52.522;13.622;2023-08-20T10:49:01;101491.78;;;29.50;60.57
78144;BME280;67394;52.522;13.622;2023-08-20T10:51:36;101486.84;;;29.71;58.54
78144;BME280;67394;52.522;13.622;2023-08-20T10:54:17;101493.94;;;29.17;58.10
78144;BME280;67394;52.522;13.622;2023-08-20T10:56:48;101491.38;;;29.69;59.38
78144;BME280;67394;52.522;13.622;2023-08-20T10:59:17;101489.47;;;29.58;58.83
78144;BME280;67394;52.522;13.622;2023-08-20T11:01:47;101480.84;;;29.94;60.22
78144;BME280;67394;52.522;13.622;2023-08-20T11:04:16;101481.31;;;30.01;58.70
78144;BME280;67394;52.522;13.622;2023-08-20T11:06:43;101480.69;;;29.97;57.60
78144;BME280;67394;52.522;13.622;2023-08-20T11:09:10;101476.97;;;30.00;56.39
78144;BME280;67394;52.522;13.622;2023-08-20T11:11:39;101491.16;;;30.24;55.63
78144;BME280;67394;52.522;13.622;2023-08-20T11:14:08;101490.19;;;30.12;52.99
78144;BME280;67394;52.522;13.622;2023-08-20T11:16:35;101494.44;;;30.40;53.98
78144;BME280;67394;52.522;13.622;2023-08-20T11:19:05;101492.44;;;30.18;52.16
78144;BME280;67394;52.522;13.622;2023-08-20T11:21:32;101485.06;;;29.71;53.67
78144;BME280;67394;52.522;13.622;2023-08-20T11:23:59;101494.00;;;29.96;55.81
78144;BME280;67394;52.522;13.622;2023-08-20T11:26:28;101495.13;;;29.92;51.10
78144;BME280;67394;52.522;13.622;2023-08-20T11:28:54;101503.34;;;29.62;53.12
78144;BME280;67394;52.522;13.622;2023-08-20T11:31:22;101496.38;;;29.73;53.54
78144;BME280;67394;52.522;13.622;2023-08-20T11:33:51;101501.53;;;29.62;52.24
78144;BME280;67394;52.522;13.622;2023-08-20T11:36:19;101489.09;;;29.90;51.57
78144;BME280;67394;52.522;13.622;2023-08-20T11:38:53;101496.44;;;30.37;53.37
78144;BME280;67394;52.522;13.622;2023-08-20T11:41:20;101492.00;;;30.37;49.60
78144;BME280;67394;52.522;13.622;2023-08-20T11:43:48;101500.34;;;30.56;49.47
78144;BME280;67394;52.522;13.622;2023-08-20T11:46:15;101495.59;;;30.24;49.76
78144;BME280;67394;52.522;13.622;2023-08-20T11:49:05;101498.34;;;30.47;49.63
78144;BME280;67394;52.522;13.622;2023-08-20T11:54:02;101499.19;;;30.48;48.54
78144;BME280;67394;52.522;13.622;2023-08-20T11:56:28;101496.94;;;30.67;47.37
78144;BME280;67394;52.522;13.622;2023-08-20T11:58:59;101498.88;;;30.52;45.73
78144;BME280;67394;52.522;13.622;2023-08-20T12:01:31;101494.00;;;30.21;44.90
78144;BME280;67394;52.522;13.622;2023-08-20T12:04:03;101490.75;;;30.17;47.19
78144;BME280;67394;52.522;13.622;2023-08-20T12:06:30;101492.50;;;30.42;46.09
78144;BME280;67394;52.522;13.622;2023-08-20T12:08:58;101498.00;;;30.77;46.75
78144;BME280;67394;52.522;13.622;2023-08-20T12:11:30;101493.44;;;30.79;47.20
78144;BME280;67394;52.522;13.622;2023-08-20T12:13:57;101491.38;;;30.59;45.41
78144;BME280;67394;52.522;13.622;2023-08-20T12:16:24;101490.97;;;30.89;44.69
78144;BME280;67394;52.522;13.622;2023-08-20T12:18:51;101483.41;;;30.96;43.31
78144;BME280;67394;52.522;13.622;2023-08-20T12:21:17;101488.38;;;31.00;44.02
78144;BME280;67394;52.522;13.622;2023-08-20T12:23:44;101484.25;;;30.96;44.57
78144;BME280;67394;52.522;13.622;2023-08-20T12:26:10;101488.00;;;30.93;43.76
78144;BME280;67394;52.522;13.622;2023-08-20T12:28:37;101478.78;;;31.23;46.74
78144;BME280;67394;52.522;13.622;2023-08-20T12:31:04;101479.16;;;31.29;43.98
78144;BME280;67394;52.522;13.622;2023-08-20T12:33:30;101479.94;;;31.19;44.25
78144;BME280;67394;52.522;13.622;2023-08-20T12:35:58;101479.38;;;31.26;42.87
78144;BME280;67394;52.522;13.622;2023-08-20T12:38:25;101487.53;;;31.12;45.54
78144;BME280;67394;52.522;13.622;2023-08-20T12:40:51;101479.59;;;31.00;43.17
78144;BME280;67394;52.522;13.622;2023-08-20T12:43:18;101467.75;;;31.64;44.25
78144;BME280;67394;52.522;13.622;2023-08-20T12:45:45;101470.31;;;31.77;42.43
78144;BME280;67394;52.522;13.622;2023-08-20T12:48:13;101469.28;;;31.32;42.12
78144;BME280;67394;52.522;13.622;2023-08-20T12:50:41;101468.06;;;31.59;43.00
78144;BME280;67394;52.522;13.622;2023-08-20T12:53:07;101468.63;;;31.76;43.40